createdAt,value
2023-04-21T00:00:56.203Z,6.07
2023-04-21T00:03:24.147Z,6.06
2023-04-21T00:05:51.475Z,5.98
2023-04-21T00:08:18.740Z,5.98
2023-04-21T00:10:47.000Z,5.96
2023-04-21T00:13:14.276Z,5.90
2023-04-21T00:15:41.189Z,5.93
2023-04-21T00:18:07.789Z,5.95
2023-04-21T00:20:34.487Z,5.94
2023-04-21T00:23:01.606Z,5.88
2023-04-21T00:25:28.048Z,5.85
2023-04-21T00:27:55.471Z,5.87
2023-04-21T00:30:22.052Z,5.83
2023-04-21T00:32:48.473Z,5.80
2023-04-21T00:35:14.939Z,5.83
2023-04-21T00:37:41.580Z,5.86
2023-04-21T00:40:09.012Z,5.89
2023-04-21T00:42:35.605Z,5.88
2023-04-21T00:45:03.192Z,5.90
2023-04-21T00:47:29.670Z,5.88
2023-04-21T00:49:58.051Z,6.01
2023-04-21T00:52:25.416Z,5.81
2023-04-21T00:54:53.107Z,5.77
2023-04-21T00:57:21.736Z,5.66
2023-04-21T00:59:48.369Z,5.62
2023-04-21T01:02:17.610Z,5.59
2023-04-21T01:04:45.683Z,5.53
2023-04-21T01:07:12.860Z,5.45
2023-04-21T01:09:39.606Z,5.40
2023-04-21T01:12:11.169Z,5.36
2023-04-21T01:14:39.718Z,5.31
2023-04-21T01:17:07.686Z,5.26
2023-04-21T01:19:40.183Z,5.26
2023-04-21T01:22:10.846Z,5.22
2023-04-21T01:24:45.636Z,5.13
2023-04-21T01:27:18.637Z,5.04
2023-04-21T01:29:47.468Z,4.95
2023-04-21T01:32:20.747Z,4.88
2023-04-21T01:34:48.616Z,4.85
2023-04-21T01:37:18.188Z,4.78
2023-04-21T01:39:47.444Z,4.81
2023-04-21T01:42:14.222Z,4.80
2023-04-21T01:44:41.026Z,4.72
2023-04-21T01:47:09.172Z,4.70
2023-04-21T01:49:35.590Z,4.63
2023-04-21T01:52:02.011Z,4.54
2023-04-21T01:54:28.445Z,4.50
2023-04-21T01:56:54.920Z,4.45
2023-04-21T01:59:21.798Z,4.41
2023-04-21T02:04:22.811Z,4.37
2023-04-21T02:06:49.818Z,4.35
2023-04-21T02:09:16.793Z,4.36
2023-04-21T02:11:43.342Z,4.30
2023-04-21T02:14:09.791Z,4.26
2023-04-21T02:16:36.394Z,4.15
2023-04-21T02:19:03.229Z,4.13
2023-04-21T02:21:29.652Z,4.11
2023-04-21T02:23:56.277Z,4.05
2023-04-21T02:26:22.709Z,4.08
2023-04-21T02:28:50.279Z,4.10
2023-04-21T02:31:17.886Z,4.14
2023-04-21T02:33:45.052Z,4.15
2023-04-21T02:36:11.835Z,4.08
2023-04-21T02:38:38.454Z,3.97
2023-04-21T02:41:04.895Z,3.91
2023-04-21T02:43:31.387Z,3.93
2023-04-21T02:45:57.973Z,3.99
2023-04-21T02:48:24.400Z,4.03
2023-04-21T02:50:53.232Z,4.05
2023-04-21T02:53:22.427Z,4.11
2023-04-21T02:55:49.017Z,4.18
2023-04-21T02:58:16.447Z,4.21
2023-04-21T03:00:43.343Z,4.19
2023-04-21T03:03:10.524Z,4.22
2023-04-21T03:05:37.146Z,4.24
2023-04-21T03:08:03.679Z,4.24
2023-04-21T03:10:30.253Z,4.28
2023-04-21T03:12:57.166Z,4.32
2023-04-21T03:15:23.831Z,4.33
2023-04-21T03:17:50.616Z,4.29
2023-04-21T03:20:17.534Z,4.31
2023-04-21T03:22:43.885Z,4.29
2023-04-21T03:25:11.304Z,4.23
2023-04-21T03:27:37.702Z,4.10
2023-04-21T03:30:04.513Z,4.02
2023-04-21T03:32:30.903Z,4.04
2023-04-21T03:34:57.258Z,4.05
2023-04-21T03:37:23.823Z,4.03
2023-04-21T03:39:50.296Z,4.07
2023-04-21T03:42:16.689Z,4.12
2023-04-21T03:44:43.027Z,4.11
2023-04-21T03:47:09.404Z,4.15
2023-04-21T03:49:36.223Z,4.13
2023-04-21T03:52:02.988Z,4.12
2023-04-21T03:54:29.352Z,4.09
2023-04-21T03:56:55.717Z,4.03
2023-04-21T03:59:22.555Z,3.97
2023-04-21T04:01:48.906Z,3.97
2023-04-21T04:04:15.655Z,3.95
2023-04-21T04:06:42.299Z,3.91
2023-04-21T04:09:08.955Z,3.93
2023-04-21T04:11:35.548Z,3.91
2023-04-21T04:14:02.489Z,3.93
2023-04-21T04:16:29.251Z,3.99
2023-04-21T04:18:56.604Z,3.95
2023-04-21T04:21:23.124Z,3.89
2023-04-21T04:23:51.681Z,3.83
2023-04-21T04:26:18.671Z,3.83
2023-04-21T04:28:45.342Z,3.82
2023-04-21T04:31:13.436Z,3.77
2023-04-21T04:33:43.707Z,3.70
2023-04-21T04:36:12.446Z,3.66
2023-04-21T04:38:38.835Z,3.70
2023-04-21T04:41:06.260Z,3.72
2023-04-21T04:43:39.262Z,3.78
2023-04-21T04:46:06.072Z,3.82
2023-04-21T04:48:32.870Z,3.88
2023-04-21T04:50:59.278Z,3.91
2023-04-21T04:53:28.200Z,3.99
2023-04-21T04:55:54.827Z,4.06
2023-04-21T04:58:22.249Z,4.09
2023-04-21T05:00:49.205Z,4.10
2023-04-21T05:03:16.065Z,4.06
2023-04-21T05:05:42.673Z,4.07
2023-04-21T05:08:09.241Z,4.07
2023-04-21T05:10:35.740Z,4.10
2023-04-21T05:13:02.189Z,4.13
2023-04-21T05:15:29.034Z,4.09
2023-04-21T05:17:55.845Z,4.05
2023-04-21T05:20:22.835Z,4.00
2023-04-21T05:22:49.276Z,3.96
2023-04-21T05:25:15.741Z,3.98
2023-04-21T05:27:43.118Z,4.00
2023-04-21T05:30:09.950Z,3.99
2023-04-21T05:32:36.682Z,3.89
2023-04-21T05:35:03.649Z,3.87
2023-04-21T05:37:30.020Z,3.88
2023-04-21T05:39:56.365Z,3.89
2023-04-21T05:42:22.740Z,3.97
2023-04-21T05:44:49.236Z,4.01
2023-04-21T05:47:15.660Z,4.06
2023-04-21T05:49:42.534Z,4.19
2023-04-21T05:52:10.353Z,4.23
2023-04-21T05:54:37.009Z,4.22
2023-04-21T05:57:03.839Z,4.29
2023-04-21T05:59:30.270Z,4.31
2023-04-21T06:01:56.894Z,4.29
2023-04-21T06:04:23.670Z,4.28
2023-04-21T06:06:50.553Z,4.32
2023-04-21T06:09:16.956Z,4.26
2023-04-21T06:11:43.306Z,4.33
2023-04-21T06:14:09.679Z,4.41
2023-04-21T06:16:36.382Z,4.49
2023-04-21T06:19:03.090Z,4.59
2023-04-21T06:21:29.453Z,4.63
2023-04-21T06:23:55.820Z,4.68
2023-04-21T06:26:22.224Z,4.79
2023-04-21T06:28:48.728Z,4.93
2023-04-21T06:31:16.223Z,5.06
2023-04-21T06:33:42.676Z,5.12
2023-04-21T06:36:09.112Z,5.24
2023-04-21T06:38:35.669Z,5.31
2023-04-21T06:41:02.903Z,5.43
2023-04-21T06:43:29.261Z,5.70
2023-04-21T06:45:55.655Z,5.87
2023-04-21T06:48:22.161Z,6.00
2023-04-21T06:50:48.661Z,6.09
2023-04-21T06:53:15.611Z,6.16
2023-04-21T06:55:42.155Z,6.30
2023-04-21T06:58:08.654Z,6.35
2023-04-21T07:00:38.221Z,6.38
2023-04-21T07:03:04.844Z,6.49
2023-04-21T07:05:31.422Z,6.65
2023-04-21T07:07:59.824Z,6.82
2023-04-21T07:10:27.544Z,6.92
2023-04-21T07:12:54.237Z,7.05
2023-04-21T07:15:20.941Z,7.15
2023-04-21T07:17:47.821Z,7.33
2023-04-21T07:20:14.444Z,7.36
2023-04-21T07:22:40.863Z,7.57
2023-04-21T07:25:07.922Z,7.59
2023-04-21T07:27:36.174Z,7.53
2023-04-21T07:30:04.403Z,7.69
2023-04-21T07:32:31.344Z,7.89
2023-04-21T07:34:58.591Z,8.16
2023-04-21T07:37:25.383Z,8.43
2023-04-21T07:39:51.738Z,8.75
2023-04-21T07:42:18.331Z,8.89
2023-04-21T07:44:44.841Z,8.98
2023-04-21T07:47:11.766Z,9.07
2023-04-21T07:49:38.395Z,9.10
2023-04-21T07:52:04.829Z,9.23
2023-04-21T07:54:31.881Z,9.30
2023-04-21T07:56:58.428Z,9.29
2023-04-21T07:59:25.027Z,9.32
2023-04-21T08:01:51.760Z,9.40
2023-04-21T08:04:18.358Z,9.52
2023-04-21T08:06:45.253Z,9.52
2023-04-21T08:09:11.990Z,9.58
2023-04-21T08:11:38.430Z,9.75
2023-04-21T08:14:05.263Z,9.71
2023-04-21T08:16:32.080Z,9.84
2023-04-21T08:18:58.564Z,10.07
2023-04-21T08:21:25.435Z,10.08
2023-04-21T08:23:51.983Z,10.10
2023-04-21T08:26:21.626Z,10.11
2023-04-21T08:28:49.781Z,10.16
2023-04-21T08:31:17.661Z,10.29
2023-04-21T08:33:57.996Z,10.44
2023-04-21T08:36:29.515Z,10.83
2023-04-21T08:38:57.018Z,11.10
2023-04-21T08:41:24.613Z,10.81
2023-04-21T08:43:51.103Z,10.54
2023-04-21T08:46:18.593Z,10.54
2023-04-21T08:48:46.489Z,10.52
2023-04-21T08:51:20.960Z,10.55
2023-04-21T08:53:47.703Z,10.94
2023-04-21T08:56:14.766Z,11.21
2023-04-21T08:58:41.682Z,11.37
2023-04-21T09:01:08.293Z,11.49
2023-04-21T09:03:35.348Z,11.48
2023-04-21T09:06:08.189Z,11.51
2023-04-21T09:08:38.619Z,11.56
2023-04-21T09:11:05.753Z,11.54
2023-04-21T09:13:36.511Z,11.49
2023-04-21T09:16:07.964Z,11.51
2023-04-21T09:18:37.566Z,11.59
2023-04-21T09:21:15.524Z,11.39
2023-04-21T09:23:53.157Z,11.66
2023-04-21T09:26:24.239Z,11.74
2023-04-21T09:28:51.948Z,11.45
2023-04-21T09:31:20.484Z,11.61
2023-04-21T09:33:57.180Z,11.76
2023-04-21T09:36:27.825Z,12.37
2023-04-21T09:39:09.005Z,12.43
2023-04-21T09:41:40.712Z,12.87
2023-04-21T09:44:07.864Z,13.29
2023-04-21T09:46:36.788Z,13.65
2023-04-21T09:49:04.240Z,13.95
2023-04-21T09:52:02.193Z,13.57
2023-04-21T09:56:52.936Z,13.43
2023-04-21T09:59:24.905Z,13.65
2023-04-21T10:01:53.709Z,13.17
2023-04-21T10:04:23.251Z,12.96
2023-04-21T10:06:51.973Z,13.41
2023-04-21T10:09:21.317Z,13.74
2023-04-21T10:11:48.151Z,13.90
2023-04-21T10:14:14.718Z,14.20
2023-04-21T10:16:43.183Z,14.33
2023-04-21T10:19:27.338Z,14.07
2023-04-21T10:21:57.659Z,14.17
2023-04-21T10:24:24.623Z,14.49
2023-04-21T10:26:54.023Z,14.70
2023-04-21T10:29:47.852Z,14.68
2023-04-21T10:32:43.419Z,15.24
2023-04-21T10:35:14.782Z,14.96
2023-04-21T10:37:42.612Z,14.98
2023-04-21T10:43:45.320Z,15.33
2023-04-21T10:46:34.981Z,15.46
2023-04-21T10:49:09.840Z,15.53
2023-04-21T10:52:04.108Z,15.59
2023-04-21T10:55:04.216Z,15.69
2023-04-21T10:57:33.093Z,15.93
2023-04-21T11:00:00.250Z,16.21
2023-04-21T11:02:27.757Z,16.40
2023-04-21T11:04:54.716Z,16.59
2023-04-21T11:07:25.247Z,16.96
2023-04-21T11:09:59.105Z,16.73
2023-04-21T11:12:33.555Z,16.66
2023-04-21T11:15:02.983Z,16.60
2023-04-21T11:17:29.418Z,16.30
2023-04-21T11:19:56.907Z,16.60
2023-04-21T11:22:25.137Z,16.60
2023-04-21T11:24:55.544Z,16.73
2023-04-21T11:27:22.849Z,16.59
2023-04-21T11:29:50.547Z,16.25
2023-04-21T11:32:23.187Z,16.07
2023-04-21T11:34:49.785Z,15.98
2023-04-21T11:37:22.792Z,16.47
2023-04-21T11:39:49.242Z,17.02
2023-04-21T11:42:22.772Z,17.29
2023-04-21T11:44:49.310Z,16.45
2023-04-21T11:47:17.756Z,15.83
2023-04-21T11:49:50.482Z,16.23
2023-04-21T11:52:33.166Z,16.90
2023-04-21T11:55:02.299Z,16.79
2023-04-21T11:57:30.878Z,16.71
2023-04-21T12:00:01.954Z,16.40
2023-04-21T12:02:31.082Z,16.30
2023-04-21T12:05:03.252Z,15.91
2023-04-21T12:07:31.676Z,15.69
2023-04-21T12:09:58.859Z,15.77
2023-04-21T12:12:25.343Z,15.74
2023-04-21T12:14:52.176Z,16.03
2023-04-21T12:17:18.853Z,16.27
2023-04-21T12:19:45.381Z,16.07
2023-04-21T12:22:14.637Z,16.11
2023-04-21T12:24:41.996Z,16.47
2023-04-21T12:27:08.540Z,16.73
2023-04-21T12:29:35.698Z,17.01
2023-04-21T12:32:02.195Z,17.17
2023-04-21T12:34:28.656Z,17.33
2023-04-21T12:36:55.416Z,16.95
2023-04-21T12:39:22.527Z,16.31
2023-04-21T12:41:48.948Z,16.12
2023-04-21T12:44:16.100Z,16.13
2023-04-21T12:46:42.626Z,15.83
2023-04-21T12:49:10.343Z,15.74
2023-04-21T12:51:37.351Z,15.80
2023-04-21T12:54:03.896Z,15.90
2023-04-21T12:56:30.497Z,16.15
2023-04-21T12:58:57.982Z,16.13
2023-04-21T13:01:24.937Z,16.07
2023-04-21T13:03:51.611Z,15.85
2023-04-21T13:06:18.435Z,15.68
2023-04-21T13:08:44.825Z,16.37
2023-04-21T13:11:11.625Z,16.90
2023-04-21T13:13:38.902Z,17.38
2023-04-21T13:16:05.906Z,17.77
2023-04-21T13:18:34.810Z,18.09
2023-04-21T13:21:01.624Z,17.93
2023-04-21T13:23:37.741Z,17.88
2023-04-21T13:26:04.512Z,17.87
2023-04-21T13:28:30.946Z,17.54
2023-04-21T13:30:57.435Z,17.43
2023-04-21T13:33:24.637Z,17.88
2023-04-21T13:35:51.176Z,18.23
2023-04-21T13:38:17.617Z,18.11
2023-04-21T13:40:45.654Z,18.27
2023-04-21T13:43:12.110Z,17.94
2023-04-21T13:45:39.413Z,18.23
2023-04-21T13:48:05.907Z,18.26
2023-04-21T13:50:32.623Z,18.08
2023-04-21T13:52:58.948Z,18.27
2023-04-21T13:55:25.401Z,17.93
2023-04-21T13:57:52.687Z,17.98
2023-04-21T14:00:19.535Z,18.13
2023-04-21T14:02:46.387Z,17.93
2023-04-21T14:05:13.162Z,17.87
2023-04-21T14:07:39.694Z,18.38
2023-04-21T14:10:06.985Z,18.32
2023-04-21T14:12:33.451Z,18.02
2023-04-21T14:14:59.907Z,18.34
2023-04-21T14:17:26.764Z,18.24
2023-04-21T14:19:55.264Z,18.66
2023-04-21T14:22:21.979Z,18.24
2023-04-21T14:24:48.626Z,18.02
2023-04-21T14:27:15.418Z,18.09
2023-04-21T14:29:41.879Z,18.17
2023-04-21T14:32:08.268Z,18.32
2023-04-21T14:34:35.189Z,18.02
2023-04-21T14:37:01.673Z,18.03
2023-04-21T14:39:28.133Z,17.65
2023-04-21T14:41:54.907Z,17.73
2023-04-21T14:44:21.396Z,18.01
2023-04-21T14:46:56.882Z,18.16
2023-04-21T14:49:27.950Z,18.35
2023-04-21T14:51:54.546Z,18.37
2023-04-21T14:54:21.029Z,18.53
2023-04-21T14:56:47.456Z,18.71
2023-04-21T14:59:14.219Z,18.70
2023-04-21T15:01:40.838Z,18.83
2023-04-21T15:04:07.579Z,18.98
2023-04-21T15:06:34.534Z,19.10
2023-04-21T15:09:01.063Z,19.10
2023-04-21T15:11:27.573Z,19.00
2023-04-21T15:13:54.278Z,18.84
2023-04-21T15:16:20.741Z,18.39
2023-04-21T15:18:47.176Z,18.34
2023-04-21T15:21:13.750Z,18.46
2023-04-21T15:23:40.701Z,18.57
2023-04-21T15:26:07.115Z,18.25
2023-04-21T15:28:33.603Z,18.40
2023-04-21T15:31:00.219Z,18.57
2023-04-21T15:33:26.680Z,18.24
2023-04-21T15:35:53.119Z,17.86
2023-04-21T15:38:21.013Z,17.66
2023-04-21T15:41:00.134Z,17.83
2023-04-21T15:43:27.364Z,18.17
2023-04-21T15:45:53.824Z,18.30
2023-04-21T15:48:22.329Z,18.43
2023-04-21T15:50:48.850Z,18.47
2023-04-21T15:53:17.785Z,18.64
2023-04-21T15:55:45.760Z,18.56
2023-04-21T15:58:13.784Z,18.61
2023-04-21T16:00:44.566Z,18.50
2023-04-21T16:03:11.210Z,18.52
2023-04-21T16:05:38.062Z,18.52
2023-04-21T16:08:04.585Z,18.59
2023-04-21T16:10:31.524Z,18.25
2023-04-21T16:12:58.031Z,18.22
2023-04-21T16:15:25.178Z,17.63
2023-04-21T16:17:52.693Z,17.61
2023-04-21T16:20:19.565Z,17.59
2023-04-21T16:22:46.113Z,17.63
2023-04-21T16:25:14.088Z,17.72
2023-04-21T16:27:40.666Z,17.67
2023-04-21T16:30:08.603Z,17.81
2023-04-21T16:32:36.139Z,17.83
2023-04-21T16:35:07.733Z,17.87
2023-04-21T16:37:40.097Z,18.06
2023-04-21T16:40:07.873Z,17.92
2023-04-21T16:42:34.496Z,17.88
2023-04-21T16:45:04.373Z,17.55
2023-04-21T16:47:34.221Z,17.34
2023-04-21T16:50:00.742Z,17.13
2023-04-21T16:52:27.733Z,17.16
2023-04-21T16:54:54.380Z,17.13
2023-04-21T16:57:23.708Z,17.27
2023-04-21T16:59:51.305Z,17.43
2023-04-21T17:02:18.127Z,17.25
2023-04-21T17:04:44.974Z,17.29
2023-04-21T17:07:11.709Z,17.30
2023-04-21T17:09:38.115Z,17.36
2023-04-21T17:12:05.081Z,17.33
2023-04-21T17:14:31.441Z,17.44
2023-04-21T17:16:58.249Z,17.48
2023-04-21T17:19:24.983Z,17.45
2023-04-21T17:21:51.412Z,17.50
2023-04-21T17:24:17.794Z,17.42
2023-04-21T17:26:44.251Z,17.29
2023-04-21T17:29:11.036Z,16.89
2023-04-21T17:31:37.472Z,16.58
2023-04-21T17:34:03.845Z,16.39
2023-04-21T17:36:30.675Z,16.17
2023-04-21T17:38:58.207Z,15.95
2023-04-21T17:41:26.744Z,15.85
2023-04-21T17:43:54.790Z,15.71
2023-04-21T17:46:24.791Z,15.54
2023-04-21T17:48:52.160Z,15.38
2023-04-21T17:51:19.483Z,15.24
2023-04-21T17:53:46.652Z,15.20
2023-04-21T17:56:14.381Z,15.04
2023-04-21T17:58:42.350Z,14.93
2023-04-21T18:01:08.802Z,14.86
2023-04-21T18:03:41.201Z,14.82
2023-04-21T18:06:10.429Z,14.92
2023-04-21T18:08:37.740Z,14.81
2023-04-21T18:11:04.189Z,14.79
2023-04-21T18:13:30.623Z,14.78
2023-04-21T18:15:57.629Z,14.74
2023-04-21T18:18:24.395Z,14.63
2023-04-21T18:20:50.891Z,14.58
2023-04-21T18:23:17.316Z,14.54
2023-04-21T18:25:43.686Z,14.50
2023-04-21T18:28:13.351Z,14.43
2023-04-21T18:30:40.248Z,14.33
2023-04-21T18:33:07.826Z,14.24
2023-04-21T18:35:34.350Z,14.17
2023-04-21T18:38:01.515Z,14.11
2023-04-21T18:40:27.930Z,14.17
2023-04-21T18:42:54.879Z,14.12
2023-04-21T18:45:21.413Z,14.36
2023-04-21T18:47:47.818Z,14.15
2023-04-21T18:50:14.387Z,14.13
2023-04-21T18:52:40.885Z,13.77
2023-04-21T18:55:07.692Z,13.69
2023-04-21T18:57:34.090Z,13.51
2023-04-21T19:00:00.576Z,13.39
2023-04-21T19:02:28.834Z,13.27
2023-04-21T19:04:55.441Z,13.22
2023-04-21T19:07:22.001Z,13.20
2023-04-21T19:09:48.391Z,13.17
2023-04-21T19:12:15.905Z,13.13
2023-04-21T19:14:47.050Z,12.95
2023-04-21T19:17:13.911Z,12.76
2023-04-21T19:19:41.014Z,12.67
2023-04-21T19:22:07.540Z,12.47
2023-04-21T19:24:34.211Z,12.33
2023-04-21T19:27:02.249Z,12.21
2023-04-21T19:29:28.775Z,11.88
2023-04-21T19:31:55.348Z,11.74
2023-04-21T19:34:22.206Z,11.62
2023-04-21T19:36:49.629Z,11.52
2023-04-21T19:39:16.058Z,11.43
2023-04-21T19:41:43.003Z,11.33
2023-04-21T19:44:09.411Z,11.16
2023-04-21T19:46:36.437Z,10.84
2023-04-21T19:49:03.020Z,10.76
2023-04-21T19:51:29.379Z,10.67
2023-04-21T19:54:09.925Z,10.48
2023-04-21T19:56:38.070Z,10.46
2023-04-21T19:59:07.993Z,10.36
2023-04-21T20:01:34.563Z,10.27
2023-04-21T20:04:01.647Z,10.19
2023-04-21T20:06:28.706Z,10.07
2023-04-21T20:08:56.197Z,9.89
2023-04-21T20:11:23.192Z,9.83
2023-04-21T20:13:52.674Z,9.73
2023-04-21T20:16:19.901Z,9.66
2023-04-21T20:18:46.615Z,9.62
2023-04-21T20:21:12.972Z,9.57
2023-04-21T20:23:39.386Z,9.56
2023-04-21T20:26:06.312Z,9.62
2023-04-21T20:28:33.239Z,9.65
2023-04-21T20:31:01.167Z,9.70
2023-04-21T20:33:28.165Z,9.69
2023-04-21T20:35:55.233Z,9.70
2023-04-21T20:38:24.013Z,9.70
2023-04-21T20:40:52.437Z,9.67
2023-04-21T20:43:20.078Z,9.68
2023-04-21T20:45:47.380Z,9.66
2023-04-21T20:48:14.001Z,9.63
2023-04-21T20:50:40.882Z,9.66
2023-04-21T20:53:08.723Z,9.66
2023-04-21T20:55:35.539Z,9.62
2023-04-21T20:58:03.224Z,9.67
2023-04-21T21:00:33.022Z,9.60
2023-04-21T21:02:59.881Z,9.61
2023-04-21T21:05:33.379Z,9.55
2023-04-21T21:07:59.870Z,9.51
2023-04-21T21:10:26.331Z,9.44
2023-04-21T21:12:52.773Z,9.40
2023-04-21T21:15:19.496Z,9.37
2023-04-21T21:17:46.388Z,9.37
2023-04-21T21:20:12.899Z,9.31
2023-04-21T21:22:39.391Z,9.30
2023-04-21T21:25:06.002Z,9.30
2023-04-21T21:27:32.485Z,9.22
2023-04-21T21:29:58.877Z,9.19
2023-04-21T21:32:25.404Z,9.11
2023-04-21T21:34:52.356Z,9.13
2023-04-21T21:37:19.093Z,9.12
2023-04-21T21:39:45.614Z,9.08
2023-04-21T21:42:11.975Z,9.09
2023-04-21T21:44:38.378Z,9.05
2023-04-21T21:47:04.926Z,9.04
2023-04-21T21:49:31.540Z,8.97
2023-04-21T21:51:58.002Z,8.90
2023-04-21T21:54:24.395Z,8.89
2023-04-21T21:56:50.796Z,8.87
2023-04-21T21:59:17.202Z,8.87
2023-04-21T22:01:43.611Z,8.85
2023-04-21T22:04:10.424Z,8.88
2023-04-21T22:06:37.086Z,8.86
2023-04-21T22:09:04.861Z,8.84
2023-04-21T22:11:31.845Z,8.82
2023-04-21T22:14:05.129Z,8.82
2023-04-21T22:16:42.826Z,8.83
2023-04-21T22:19:10.685Z,8.89
2023-04-21T22:21:37.150Z,8.89
2023-04-21T22:24:03.789Z,8.88
2023-04-21T22:26:31.419Z,8.88
2023-04-21T22:28:57.788Z,9.03
2023-04-21T22:31:24.553Z,9.03
2023-04-21T22:33:50.946Z,9.08
2023-04-21T22:36:17.327Z,9.08
2023-04-21T22:38:45.541Z,9.09
2023-04-21T22:41:12.738Z,9.13
2023-04-21T22:43:39.158Z,9.10
2023-04-21T22:46:06.731Z,9.25
2023-04-21T22:48:33.952Z,9.26
2023-04-21T22:51:01.350Z,9.28
2023-04-21T22:53:28.134Z,9.31
2023-04-21T22:55:54.828Z,9.30
2023-04-21T22:58:21.186Z,9.48
2023-04-21T23:00:47.711Z,9.60
2023-04-21T23:03:14.560Z,9.74
2023-04-21T23:05:41.294Z,9.72
2023-04-21T23:08:07.723Z,9.80
2023-04-21T23:10:34.648Z,9.69
2023-04-21T23:13:02.909Z,9.80
2023-04-21T23:15:29.522Z,9.81
2023-04-21T23:17:56.233Z,9.81
2023-04-21T23:20:22.875Z,9.76
2023-04-21T23:22:49.538Z,9.84
2023-04-21T23:25:15.956Z,9.79
2023-04-21T23:27:42.724Z,9.80
2023-04-21T23:30:09.589Z,9.78
2023-04-21T23:32:36.605Z,9.76
2023-04-21T23:35:03.687Z,9.70
2023-04-21T23:37:30.092Z,9.69
2023-04-21T23:39:56.891Z,9.66
2023-04-21T23:42:23.673Z,9.76
2023-04-21T23:44:50.541Z,9.76
2023-04-21T23:47:16.915Z,9.91
2023-04-21T23:49:43.364Z,9.94
2023-04-21T23:52:10.181Z,9.88
2023-04-21T23:54:36.941Z,9.91
2023-04-21T23:57:03.388Z,10.01
2023-04-21T23:59:29.836Z,9.90
